createdAt,value
2017-10-01T00:01:57.746Z,11.10
2017-10-01T00:04:25.503Z,12.60
2017-10-01T00:06:53.255Z,12.57
2017-10-01T00:09:21.004Z,13.30
2017-10-01T00:11:48.750Z,12.70
2017-10-01T00:14:16.671Z,14.17
2017-10-01T00:16:44.416Z,13.70
2017-10-01T00:19:12.200Z,15.53
2017-10-01T00:21:39.949Z,13.70
2017-10-01T00:24:07.744Z,14.60
2017-10-01T00:26:35.509Z,13.90
2017-10-01T00:29:03.449Z,14.97
2017-10-01T00:31:31.215Z,15.60
2017-10-01T00:33:58.963Z,15.53
2017-10-01T00:36:26.807Z,14.00
2017-10-01T00:38:54.620Z,16.20
2017-10-01T00:41:22.362Z,14.70
2017-10-01T00:43:50.272Z,16.60
2017-10-01T00:46:18.057Z,16.77
2017-10-01T00:48:46.614Z,16.23
2017-10-01T00:51:14.440Z,16.73
2017-10-01T00:53:42.204Z,15.70
2017-10-01T00:56:10.020Z,15.13
2017-10-01T00:58:37.879Z,16.57
2017-10-01T01:01:05.627Z,16.97
2017-10-01T01:03:33.422Z,16.50
2017-10-01T01:06:01.182Z,16.47
2017-10-01T01:08:28.980Z,16.03
2017-10-01T01:10:56.823Z,17.60
2017-10-01T01:13:24.746Z,15.77
2017-10-01T01:15:52.571Z,16.13
2017-10-01T01:18:20.420Z,17.97
2017-10-01T01:20:48.256Z,17.50
2017-10-01T01:23:16.099Z,17.13
2017-10-01T01:25:44.673Z,17.87
2017-10-01T01:28:12.555Z,16.73
2017-10-01T01:30:41.132Z,17.00
2017-10-01T01:33:08.936Z,19.20
2017-10-01T01:35:36.971Z,16.63
2017-10-01T01:38:04.788Z,17.07
2017-10-01T01:40:32.619Z,17.57
2017-10-01T01:43:01.311Z,17.97
2017-10-01T01:45:29.903Z,16.53
2017-10-01T01:47:57.741Z,17.67
2017-10-01T01:50:25.575Z,17.93
2017-10-01T01:52:53.393Z,17.20
2017-10-01T01:55:21.263Z,18.07
2017-10-01T01:57:49.196Z,17.47
2017-10-01T02:00:17.035Z,17.70
2017-10-01T02:02:44.886Z,18.40
2017-10-01T02:05:12.695Z,18.67
2017-10-01T02:07:40.461Z,16.97
2017-10-01T02:10:08.233Z,17.03
2017-10-01T02:12:36.172Z,18.33
2017-10-01T02:15:03.939Z,17.23
2017-10-01T02:17:31.737Z,18.10
2017-10-01T02:19:59.699Z,18.17
2017-10-01T02:22:27.529Z,18.37
2017-10-01T02:24:55.307Z,18.20
2017-10-01T02:27:23.078Z,20.27
2017-10-01T02:29:50.861Z,19.20
2017-10-01T02:32:18.714Z,18.70
2017-10-01T02:34:46.481Z,17.73
2017-10-01T02:37:14.280Z,17.93
2017-10-01T02:39:42.038Z,19.33
2017-10-01T02:42:09.927Z,18.67
2017-10-01T02:44:37.743Z,18.53
2017-10-01T02:47:05.752Z,18.37
2017-10-01T02:49:33.630Z,17.53
2017-10-01T02:52:01.459Z,20.30
2017-10-01T02:54:29.280Z,19.77
2017-10-01T02:56:57.091Z,18.90
2017-10-01T02:59:24.896Z,19.57
2017-10-01T03:01:52.716Z,19.27
2017-10-01T03:04:20.658Z,19.23
2017-10-01T03:06:48.554Z,18.43
2017-10-01T03:09:16.362Z,18.90
2017-10-01T03:11:44.277Z,20.90
2017-10-01T03:14:12.046Z,19.10
2017-10-01T03:16:40.578Z,20.47
2017-10-01T03:19:08.473Z,18.53
2017-10-01T03:21:36.230Z,19.70
2017-10-01T03:24:04.069Z,19.50
2017-10-01T03:26:31.967Z,20.17
2017-10-01T03:28:59.815Z,21.00
2017-10-01T03:31:27.623Z,20.80
2017-10-01T03:33:55.518Z,20.30
2017-10-01T03:36:23.351Z,20.30
2017-10-01T03:38:51.132Z,21.30
2017-10-01T03:41:18.971Z,21.07
2017-10-01T03:43:46.756Z,19.80
2017-10-01T03:46:14.657Z,19.93
2017-10-01T03:48:42.553Z,20.13
2017-10-01T03:51:10.455Z,21.43
2017-10-01T03:53:38.391Z,21.50
2017-10-01T03:56:06.217Z,19.73
2017-10-01T03:58:34.028Z,19.20
2017-10-01T04:01:01.836Z,20.40
2017-10-01T04:03:29.624Z,21.03
2017-10-01T04:05:57.361Z,20.03
2017-10-01T04:08:25.164Z,20.40
2017-10-01T04:10:52.971Z,20.63
2017-10-01T04:13:20.762Z,20.67
2017-10-01T04:15:48.579Z,21.10
2017-10-01T04:18:16.502Z,20.40
2017-10-01T04:20:44.320Z,20.83
2017-10-01T04:23:12.118Z,20.80
2017-10-01T04:25:40.034Z,22.03
2017-10-01T04:28:07.907Z,21.40
2017-10-01T04:30:35.662Z,20.50
2017-10-01T04:33:03.424Z,21.47
2017-10-01T04:35:31.164Z,22.60
2017-10-01T04:37:58.984Z,21.77
2017-10-01T04:40:26.815Z,20.47
2017-10-01T04:42:54.543Z,22.03
2017-10-01T04:45:22.277Z,22.27
2017-10-01T04:47:50.320Z,22.13
2017-10-01T04:50:18.320Z,22.10
2017-10-01T04:52:46.123Z,21.83
2017-10-01T04:55:14.015Z,22.80
2017-10-01T04:57:41.817Z,23.00
2017-10-01T05:00:09.596Z,21.40
2017-10-01T05:02:37.416Z,22.33
2017-10-01T05:05:05.157Z,21.97
2017-10-01T05:07:32.894Z,21.40
2017-10-01T05:10:00.768Z,20.83
2017-10-01T05:12:29.299Z,22.13
2017-10-01T05:14:57.086Z,22.70
2017-10-01T05:17:24.887Z,21.07
2017-10-01T05:19:52.680Z,20.07
2017-10-01T05:22:20.432Z,21.40
2017-10-01T05:24:48.291Z,21.20
2017-10-01T05:27:16.863Z,21.37
2017-10-01T05:29:44.608Z,22.00
2017-10-01T05:32:12.478Z,21.20
2017-10-01T05:34:40.300Z,21.40
2017-10-01T05:37:08.035Z,21.43
2017-10-01T05:39:35.944Z,19.30
2017-10-01T05:42:03.744Z,21.80
2017-10-01T05:44:31.469Z,20.80
2017-10-01T05:46:59.284Z,20.50
2017-10-01T05:49:27.027Z,20.73
2017-10-01T05:51:54.832Z,21.87
2017-10-01T05:54:22.650Z,20.03
2017-10-01T05:56:50.460Z,22.00
2017-10-01T05:59:18.263Z,21.50
2017-10-01T06:01:46.856Z,22.97
2017-10-01T06:04:15.069Z,22.93
2017-10-01T06:06:42.885Z,22.97
2017-10-01T06:09:10.635Z,26.33
2017-10-01T06:11:38.427Z,25.40
2017-10-01T06:14:06.792Z,25.77
2017-10-01T06:16:34.601Z,27.00
2017-10-01T06:19:02.407Z,25.27
2017-10-01T06:21:30.156Z,26.07
2017-10-01T06:23:57.966Z,25.37
2017-10-01T06:26:25.723Z,25.63
2017-10-01T06:28:53.467Z,26.20
2017-10-01T06:31:21.302Z,25.30
2017-10-01T06:33:49.121Z,26.13
2017-10-01T06:36:16.952Z,27.20
2017-10-01T06:38:44.713Z,26.57
2017-10-01T06:41:12.449Z,27.13
2017-10-01T06:43:41.099Z,27.77
2017-10-01T06:46:08.866Z,27.30
2017-10-01T06:48:36.700Z,28.47
2017-10-01T06:51:04.530Z,28.70
2017-10-01T06:53:33.130Z,27.60
2017-10-01T06:56:00.955Z,30.50
2017-10-01T06:58:28.721Z,28.00
2017-10-01T07:00:56.558Z,29.90
2017-10-01T07:03:24.351Z,29.07
2017-10-01T07:05:52.168Z,27.23
2017-10-01T07:08:20.012Z,27.10
2017-10-01T07:10:48.562Z,27.07
2017-10-01T07:13:17.305Z,26.60
2017-10-01T07:15:46.874Z,26.07
2017-10-01T07:18:14.664Z,23.93
2017-10-01T07:20:43.194Z,23.90
2017-10-01T07:23:10.949Z,23.00
2017-10-01T07:25:38.910Z,24.53
2017-10-01T07:28:06.726Z,23.87
2017-10-01T07:30:34.508Z,24.13
2017-10-01T07:33:02.281Z,23.43
2017-10-01T07:35:30.023Z,24.90
2017-10-01T07:37:57.776Z,24.60
2017-10-01T07:40:25.610Z,25.37
2017-10-01T07:42:53.376Z,24.57
2017-10-01T07:45:22.257Z,25.20
2017-10-01T07:47:50.870Z,25.87
2017-10-01T07:50:18.656Z,27.00
2017-10-01T07:52:46.529Z,31.40
2017-10-01T07:55:14.355Z,28.63
2017-10-01T07:57:42.102Z,27.80
2017-10-01T08:00:09.981Z,27.00
2017-10-01T08:02:38.304Z,26.73
2017-10-01T08:05:07.214Z,28.90
2017-10-01T08:07:36.897Z,29.77
2017-10-01T08:10:04.713Z,32.07
2017-10-01T08:12:32.472Z,31.77
2017-10-01T08:15:00.293Z,33.13
2017-10-01T08:17:28.092Z,33.07
2017-10-01T08:19:55.909Z,31.77
2017-10-01T08:22:24.595Z,33.43
2017-10-01T08:24:53.277Z,32.50
2017-10-01T08:27:21.038Z,33.47
2017-10-01T08:29:49.786Z,33.80
2017-10-01T08:32:17.558Z,33.80
2017-10-01T08:34:45.326Z,30.53
2017-10-01T08:37:13.169Z,30.67
2017-10-01T08:39:40.962Z,29.80
2017-10-01T08:42:08.788Z,30.30
2017-10-01T08:44:36.653Z,27.30
2017-10-01T08:47:04.410Z,29.10
2017-10-01T08:49:32.943Z,29.10
2017-10-01T08:52:00.711Z,30.47
2017-10-01T08:54:28.524Z,28.27
2017-10-01T08:56:56.281Z,28.00
2017-10-01T08:59:24.056Z,29.67
2017-10-01T09:01:51.874Z,28.73
2017-10-01T09:04:19.677Z,31.10
2017-10-01T09:06:47.460Z,29.23
2017-10-01T09:09:16.014Z,30.60
2017-10-01T09:11:44.140Z,29.83
2017-10-01T09:14:11.923Z,31.30
2017-10-01T09:16:40.093Z,28.40
2017-10-01T09:19:07.841Z,29.40
2017-10-01T09:21:36.412Z,30.80
2017-10-01T09:24:05.819Z,28.30
2017-10-01T09:26:33.625Z,30.13
2017-10-01T09:29:02.969Z,28.40
2017-10-01T09:31:31.172Z,29.40
2017-10-01T09:34:00.895Z,28.33
2017-10-01T09:36:28.917Z,28.40
2017-10-01T09:38:57.484Z,28.67
2017-10-01T09:41:30.921Z,30.67
2017-10-01T09:43:58.756Z,29.13
2017-10-01T09:46:28.728Z,29.60
2017-10-01T09:48:57.357Z,28.30
2017-10-01T09:51:29.331Z,28.63
2017-10-01T09:53:59.044Z,27.43
2017-10-01T09:56:28.432Z,28.00
2017-10-01T09:58:58.727Z,29.07
2017-10-01T10:01:28.811Z,25.77
2017-10-01T10:04:00.835Z,25.37
2017-10-01T10:06:30.146Z,26.83
2017-10-01T10:09:00.032Z,26.93
2017-10-01T10:11:31.589Z,24.27
2017-10-01T10:14:01.767Z,23.80
2017-10-01T10:16:31.312Z,21.07
2017-10-01T10:19:03.228Z,20.70
2017-10-01T10:21:32.348Z,23.40
2017-10-01T10:24:02.504Z,22.70
2017-10-01T10:26:30.366Z,20.00
2017-10-01T10:28:58.177Z,22.20
2017-10-01T10:31:25.945Z,22.20
2017-10-01T10:33:53.815Z,24.03
2017-10-01T10:36:21.555Z,21.53
2017-10-01T10:38:49.299Z,19.13
2017-10-01T10:41:17.060Z,19.93
2017-10-01T10:43:44.821Z,21.77
2017-10-01T10:46:12.643Z,21.97
2017-10-01T10:48:40.466Z,22.67
2017-10-01T10:51:08.242Z,22.93
2017-10-01T10:53:35.981Z,25.00
2017-10-01T10:56:03.771Z,24.83
2017-10-01T10:58:31.629Z,22.60
2017-10-01T11:00:59.405Z,20.93
2017-10-01T11:03:27.254Z,20.90
2017-10-01T11:05:55.060Z,19.33
2017-10-01T11:08:22.853Z,19.97
2017-10-01T11:10:50.874Z,18.60
2017-10-01T11:13:18.616Z,18.80
2017-10-01T11:15:46.416Z,17.30
2017-10-01T11:18:14.289Z,17.40
2017-10-01T11:20:42.034Z,16.30
2017-10-01T11:23:09.851Z,17.90
2017-10-01T11:25:37.755Z,17.80
2017-10-01T11:28:05.546Z,16.53
2017-10-01T11:30:33.306Z,18.47
2017-10-01T11:33:01.902Z,16.03
2017-10-01T11:35:29.623Z,17.80
2017-10-01T11:37:57.467Z,18.13
2017-10-01T11:40:25.330Z,16.90
2017-10-01T11:42:54.967Z,17.60
2017-10-01T11:45:26.515Z,18.93
2017-10-01T11:47:54.270Z,16.87
2017-10-01T11:50:22.111Z,16.97
2017-10-01T11:52:50.682Z,21.73
2017-10-01T11:55:18.442Z,19.47
2017-10-01T11:57:46.247Z,20.70
2017-10-01T12:00:14.067Z,20.20
2017-10-01T12:02:41.811Z,18.23
2017-10-01T12:05:09.992Z,18.00
2017-10-01T12:07:37.795Z,17.40
2017-10-01T12:10:05.566Z,16.43
2017-10-01T12:12:33.392Z,17.50
2017-10-01T12:15:01.259Z,16.97
2017-10-01T12:17:29.066Z,15.90
2017-10-01T12:19:56.839Z,17.57
2017-10-01T12:22:24.652Z,17.10
2017-10-01T12:24:52.416Z,17.53
2017-10-01T12:27:21.464Z,17.53
2017-10-01T12:29:49.800Z,15.80
2017-10-01T12:32:17.642Z,16.10
2017-10-01T12:34:47.715Z,15.70
2017-10-01T12:37:16.652Z,13.97
2017-10-01T12:39:45.522Z,14.00
2017-10-01T12:42:13.585Z,13.30
2017-10-01T12:44:41.327Z,13.53
2017-10-01T12:47:09.134Z,13.30
2017-10-01T12:49:36.970Z,14.77
2017-10-01T12:52:04.779Z,14.70
2017-10-01T12:54:32.514Z,14.40
2017-10-01T12:57:00.827Z,13.93
2017-10-01T12:59:28.578Z,16.97
2017-10-01T13:02:02.057Z,15.43
2017-10-01T13:04:29.841Z,16.70
2017-10-01T13:06:57.698Z,17.70
2017-10-01T13:09:26.467Z,17.43
2017-10-01T13:11:54.364Z,17.00
2017-10-01T13:14:22.188Z,16.97
2017-10-01T13:16:49.960Z,17.40
2017-10-01T13:19:17.714Z,17.97
2017-10-01T13:21:45.535Z,18.40
2017-10-01T13:24:13.291Z,18.37
2017-10-01T13:26:41.098Z,16.90
2017-10-01T13:29:08.940Z,17.70
2017-10-01T13:31:36.710Z,17.17
2017-10-01T13:34:04.535Z,17.77
2017-10-01T13:36:32.406Z,15.10
2017-10-01T13:39:00.234Z,16.23
2017-10-01T13:41:28.035Z,15.67
2017-10-01T13:43:55.932Z,14.73
2017-10-01T13:46:23.730Z,13.97
2017-10-01T13:48:51.494Z,14.70
2017-10-01T13:51:19.354Z,13.17
2017-10-01T13:53:47.164Z,14.40
2017-10-01T13:56:14.986Z,15.60
2017-10-01T13:58:42.818Z,15.57
2017-10-01T14:01:10.603Z,17.40
2017-10-01T14:03:38.480Z,16.40
2017-10-01T14:06:06.253Z,15.73
2017-10-01T14:08:34.040Z,16.20
2017-10-01T14:11:01.801Z,15.60
2017-10-01T14:13:29.651Z,16.93
2017-10-01T14:15:57.461Z,14.87
2017-10-01T14:18:25.974Z,14.73
2017-10-01T14:20:53.792Z,14.50
2017-10-01T14:23:21.538Z,14.97
2017-10-01T14:25:49.275Z,15.50
2017-10-01T14:28:17.156Z,15.83
2017-10-01T14:44:10.427Z,13.60
2017-10-01T14:46:38.269Z,12.53
2017-10-01T14:49:06.016Z,10.50
2017-10-01T14:51:34.544Z,9.73
2017-10-01T14:54:02.267Z,8.63
2017-10-01T14:56:30.077Z,10.33
2017-10-01T14:58:57.860Z,10.67
2017-10-01T15:01:25.666Z,10.17
2017-10-01T15:03:53.447Z,10.33
2017-10-01T15:06:21.367Z,12.03
2017-10-01T15:08:49.169Z,11.20
2017-10-01T15:11:16.960Z,12.00
2017-10-01T15:13:44.936Z,11.77
2017-10-01T15:16:12.765Z,14.37
2017-10-01T15:18:40.626Z,16.90
2017-10-01T15:21:08.390Z,18.13
2017-10-01T15:23:36.184Z,20.30
2017-10-01T15:26:05.149Z,19.60
2017-10-01T15:28:33.086Z,20.60
2017-10-01T15:31:00.840Z,21.20
2017-10-01T15:33:28.610Z,21.40
2017-10-01T15:35:56.465Z,21.20
2017-10-01T15:38:24.285Z,21.43
2017-10-01T15:40:52.079Z,19.40
2017-10-01T15:43:19.911Z,20.63
2017-10-01T15:45:47.725Z,23.37
2017-10-01T15:48:16.340Z,22.27
2017-10-01T15:50:44.107Z,20.23
2017-10-01T15:53:11.865Z,18.17
2017-10-01T15:55:39.748Z,17.00
2017-10-01T15:58:07.500Z,16.90
2017-10-01T16:00:35.290Z,15.33
2017-10-01T16:03:03.045Z,13.80
2017-10-01T16:05:30.798Z,13.70
2017-10-01T16:07:58.657Z,14.57
2017-10-01T16:10:26.490Z,13.10
2017-10-01T16:12:54.245Z,12.80
2017-10-01T16:15:23.025Z,12.70
2017-10-01T16:17:50.825Z,13.00
2017-10-01T16:20:18.764Z,17.43
2017-10-01T16:22:46.504Z,14.57
2017-10-01T16:25:14.444Z,16.23
2017-10-01T16:27:44.205Z,19.13
2017-10-01T16:30:13.027Z,15.97
2017-10-01T16:32:40.876Z,16.90
2017-10-01T16:35:08.678Z,16.63
2017-10-01T16:37:36.659Z,16.23
2017-10-01T16:40:04.541Z,15.47
2017-10-01T16:42:32.275Z,15.77
2017-10-01T16:45:00.130Z,14.40
2017-10-01T16:47:27.880Z,14.90
2017-10-01T16:49:55.816Z,13.53
2017-10-01T16:52:23.706Z,13.20
2017-10-01T16:54:51.456Z,14.73
2017-10-01T16:57:19.222Z,12.83
2017-10-01T16:59:47.109Z,13.13
2017-10-01T17:02:14.936Z,21.67
2017-10-01T17:04:42.834Z,14.03
2017-10-01T17:07:10.841Z,14.37
2017-10-01T17:09:38.705Z,13.30
2017-10-01T17:12:06.575Z,14.80
2017-10-01T17:14:34.365Z,12.80
2017-10-01T17:17:02.183Z,12.70
2017-10-01T17:19:30.042Z,12.27
2017-10-01T17:21:57.927Z,12.37
2017-10-01T17:24:26.962Z,12.40
2017-10-01T17:26:54.903Z,11.17
2017-10-01T17:29:23.505Z,11.37
2017-10-01T17:31:51.398Z,11.73
2017-10-01T17:34:19.326Z,12.80
2017-10-01T17:36:47.202Z,13.53
2017-10-01T17:39:14.985Z,12.43
2017-10-01T17:41:50.642Z,13.20
2017-10-01T17:44:18.462Z,12.70
2017-10-01T17:46:46.228Z,12.87
2017-10-01T17:49:14.597Z,13.40
2017-10-01T17:51:42.486Z,13.60
2017-10-01T17:54:10.346Z,13.67
2017-10-01T17:56:38.121Z,14.20
2017-10-01T17:59:05.919Z,14.10
2017-10-01T18:01:33.666Z,13.80
2017-10-01T18:04:01.403Z,14.03
2017-10-01T18:06:29.222Z,14.13
2017-10-01T18:08:56.990Z,14.30
2017-10-01T18:11:24.820Z,13.63
2017-10-01T18:13:52.718Z,13.30
2017-10-01T18:16:20.488Z,12.60
2017-10-01T18:18:48.316Z,13.47
2017-10-01T18:21:16.074Z,13.27
2017-10-01T18:23:44.699Z,13.60
2017-10-01T18:26:12.432Z,12.87
2017-10-01T18:28:40.283Z,11.90
2017-10-01T18:31:08.824Z,13.33
2017-10-01T18:33:36.641Z,13.27
2017-10-01T18:36:05.436Z,13.23
2017-10-01T18:38:33.240Z,14.07
2017-10-01T18:41:01.059Z,13.10
2017-10-01T18:43:28.893Z,29.80
2017-10-01T18:45:56.704Z,14.97
2017-10-01T18:48:24.837Z,14.53
2017-10-01T18:50:54.707Z,15.03
2017-10-01T18:53:23.291Z,14.47
2017-10-01T18:55:51.078Z,15.67
2017-10-01T18:58:18.935Z,15.37
2017-10-01T19:00:48.676Z,15.13
2017-10-01T19:03:17.501Z,15.40
2017-10-01T19:05:45.324Z,15.50
2017-10-01T19:08:15.020Z,15.97
2017-10-01T19:10:43.430Z,15.00
2017-10-01T19:13:12.487Z,15.90
2017-10-01T19:15:40.309Z,16.10
2017-10-01T19:18:08.136Z,17.00
2017-10-01T19:20:37.742Z,21.27
2017-10-01T19:23:06.295Z,23.00
2017-10-01T19:25:36.671Z,17.00
2017-10-01T19:28:05.386Z,15.40
2017-10-01T19:30:34.984Z,16.83
2017-10-01T19:33:04.555Z,16.07
2017-10-01T19:35:34.537Z,16.70
2017-10-01T19:38:03.182Z,15.23
2017-10-01T19:40:32.700Z,16.30
2017-10-01T19:43:01.407Z,16.57
2017-10-01T19:45:29.228Z,18.10
2017-10-01T19:47:57.000Z,17.77
2017-10-01T19:50:25.217Z,20.13
2017-10-01T19:52:53.277Z,18.23
2017-10-01T19:55:21.175Z,17.97
2017-10-01T19:57:49.092Z,17.33
2017-10-01T20:00:16.927Z,16.13
2017-10-01T20:02:45.018Z,19.40
2017-10-01T20:05:12.859Z,17.80
2017-10-01T20:07:40.596Z,15.90
2017-10-01T20:10:08.469Z,16.70
2017-10-01T20:12:36.257Z,15.83
2017-10-01T20:15:04.060Z,17.00
2017-10-01T20:17:32.651Z,17.20
2017-10-01T20:20:00.401Z,17.00
2017-10-01T20:22:29.598Z,17.27
2017-10-01T20:24:57.914Z,18.33
2017-10-01T20:27:25.762Z,18.90
2017-10-01T20:29:53.568Z,18.70
2017-10-01T20:32:21.440Z,20.87
2017-10-01T20:34:49.260Z,19.33
2017-10-01T20:37:17.776Z,18.50
2017-10-01T20:39:45.611Z,19.00
2017-10-01T20:42:13.434Z,17.73
2017-10-01T20:44:41.180Z,18.00
2017-10-01T20:47:09.010Z,18.70
2017-10-01T20:49:37.554Z,18.33
2017-10-01T20:52:05.309Z,17.43
2017-10-01T20:54:33.098Z,17.07
2017-10-01T20:57:00.861Z,17.90
2017-10-01T20:59:28.624Z,20.17
2017-10-01T21:01:56.365Z,18.30
2017-10-01T21:04:24.115Z,17.37
2017-10-01T21:06:51.996Z,17.43
2017-10-01T21:09:19.737Z,18.00
2017-10-01T21:11:47.545Z,17.80
2017-10-01T21:14:23.161Z,17.70
2017-10-01T21:16:52.392Z,16.77
2017-10-01T21:19:27.590Z,17.60
2017-10-01T21:21:56.420Z,18.30
2017-10-01T21:24:24.323Z,18.90
2017-10-01T21:26:52.071Z,18.03
2017-10-01T21:29:19.889Z,18.60
2017-10-01T21:31:47.781Z,16.00
2017-10-01T21:34:15.521Z,16.70
2017-10-01T21:36:43.342Z,19.07
2017-10-01T21:39:11.077Z,18.17
2017-10-01T21:41:38.881Z,17.57
2017-10-01T21:44:06.639Z,17.53
2017-10-01T21:46:34.589Z,19.40
2017-10-01T21:49:02.355Z,19.37
2017-10-01T21:51:30.130Z,19.00
2017-10-01T21:53:57.948Z,18.10
2017-10-01T21:56:25.716Z,16.70
2017-10-01T21:58:53.490Z,17.80
2017-10-01T22:01:21.343Z,17.53
2017-10-01T22:03:49.138Z,16.93
2017-10-01T22:06:17.750Z,17.80
2017-10-01T22:08:45.655Z,18.00
2017-10-01T22:11:13.475Z,16.90
2017-10-01T22:13:41.224Z,17.57
2017-10-01T22:16:09.033Z,18.33
2017-10-01T22:18:36.778Z,17.20
2017-10-01T22:21:04.535Z,19.53
2017-10-01T22:23:32.406Z,19.10
2017-10-01T22:26:00.152Z,18.50
2017-10-01T22:28:27.882Z,18.33
2017-10-01T22:30:55.725Z,18.80
2017-10-01T22:33:23.481Z,18.20
2017-10-01T22:35:51.295Z,18.33
2017-10-01T22:38:19.127Z,18.67
2017-10-01T22:40:46.937Z,18.47
2017-10-01T22:43:14.681Z,19.40
2017-10-01T22:45:42.595Z,20.10
2017-10-01T22:48:10.407Z,20.57
2017-10-01T22:50:38.145Z,20.10
2017-10-01T22:53:05.974Z,21.30
2017-10-01T22:55:33.702Z,20.10
2017-10-01T22:58:01.485Z,20.70
2017-10-01T23:00:29.326Z,20.50
2017-10-01T23:02:57.067Z,22.97
2017-10-01T23:05:25.616Z,20.40
2017-10-01T23:07:53.450Z,20.90
2017-10-01T23:10:21.186Z,20.80
2017-10-01T23:12:48.980Z,21.90
2017-10-01T23:15:16.841Z,21.30
2017-10-01T23:17:44.659Z,23.20
2017-10-01T23:20:12.466Z,21.13
2017-10-01T23:22:40.236Z,21.40
2017-10-01T23:25:07.986Z,21.00
2017-10-01T23:27:35.797Z,22.07
2017-10-01T23:30:03.725Z,21.83
2017-10-01T23:32:32.252Z,21.93
2017-10-01T23:35:00.012Z,23.10
2017-10-01T23:37:27.920Z,23.93
2017-10-01T23:39:55.729Z,22.10
2017-10-01T23:42:23.487Z,23.07
2017-10-01T23:44:52.061Z,21.97
2017-10-01T23:47:19.815Z,23.10
2017-10-01T23:49:47.564Z,22.03
2017-10-01T23:52:15.309Z,23.03
2017-10-01T23:54:43.113Z,21.97
2017-10-01T23:57:10.841Z,23.80
2017-10-01T23:59:38.715Z,23.60
